This is the latest recevied weather packets stored in our database for station/object S54A-10. If no packets are shown the sender has not sent any weather packets the latest 10 day(s).
| Time | Temp. | Humidity | Pressure | Rain* | Wind** | Luminosity | Snow |
|---|---|---|---|---|---|---|---|
| 1777058958 | 18.89° C | 38% | 1017 hPa | - | - | - | - |
| 1777058058 | 18.89° C | 38% | 1016.7 hPa | - | - | - | - |
| 1777057157 | 19.44° C | 37% | 1016.7 hPa | - | - | - | - |
| 1777056257 | 19.44° C | 36% | 1016.4 hPa | - | - | - | - |
| 1777055357 | 20° C | 36% | 1016.3 hPa | - | - | - | - |
| 1777054457 | 20.56° C | 35% | 1016.2 hPa | - | - | - | - |
| 1777053557 | 21.11° C | 34% | 1016 hPa | - | - | - | - |
| 1777052657 | 22.78° C | 33% | 1016 hPa | - | - | - | - |
| 1777051757 | 23.89° C | 32% | 1015.9 hPa | - | - | - | - |
| 1777050857 | 25° C | 31% | 1015.7 hPa | - | - | - | - |
| 1777049957 | 26.11° C | 30% | 1015.5 hPa | - | - | - | - |
| 1777049057 | 27.22° C | 29% | 1015.6 hPa | - | - | - | - |
| 1777048157 | 27.78° C | 29% | 1015.4 hPa | - | - | - | - |
| 1777047257 | 28.89° C | 27% | 1015.6 hPa | - | - | - | - |
| 1777046356 | 29.44° C | 27% | 1015.6 hPa | - | - | - | - |
| 1777045456 | 29.44° C | 25% | 1015.7 hPa | - | - | - | - |
| 1777044556 | 30° C | 26% | 1015.5 hPa | - | - | - | - |
| 1777043656 | 28.89° C | 27% | 1015.7 hPa | - | - | - | - |
| 1777042756 | 27.22° C | 28% | 1015.6 hPa | - | - | - | - |
| 1777041856 | 27.22° C | 29% | 1015.7 hPa | - | - | - | - |
| 1777040956 | 28.89° C | 26% | 1015.8 hPa | - | - | - | - |
| 1777040056 | 29.44° C | 26% | 1015.9 hPa | - | - | - | - |
| 1777039156 | 28.33° C | 26% | 1015.9 hPa | - | - | - | - |
| 1777038256 | 26.67° C | 29% | 1016.1 hPa | - | - | - | - |
| 1777037356 | 26.11° C | 28% | 1016.3 hPa | - | - | - | - |
* Rain since midnight (hover to see other rain measurements)
** Current wind speed in m/s (hover to see current wind gust speed)